Time;durP1;ratioP1;P1;durP2;ratioP2;P2;SDS_P1;SDS_P2;PMS_P1;PMS_P2;Temp;Humidity;BMP_temperature;BMP_pressure;BME280_temperature;BME280_humidity;BME280_pressure;Samples;Min_cycle;Max_cycle;Signal;HPM_P1;HPM_P2
2023/01/18 00:01:47;;;;;;;76.40;34.93;;;;;;;0.24;100.00;97421.88;5004678;28;20172;-75
2023/01/18 00:04:12;;;;;;;90.27;35.67;;;;;;;0.21;100.00;97425.31;5006022;28;20250;-76
2023/01/18 00:06:37;;;;;;;82.90;34.70;;;;;;;0.20;100.00;97421.09;5008970;28;20269;-75
2023/01/18 00:09:02;;;;;;;85.70;35.60;;;;;;;0.20;100.00;97420.22;5005598;28;20826;-77
2023/01/18 00:11:28;;;;;;;91.70;37.80;;;;;;;0.23;100.00;97426.09;5003054;28;20235;-75
2023/01/18 00:13:53;;;;;;;78.90;36.60;;;;;;;0.26;100.00;97428.59;4996365;28;20618;-75
2023/01/18 00:16:20;;;;;;;82.73;35.63;;;;;;;0.23;100.00;97430.38;5002848;28;20552;-75
2023/01/18 00:18:53;;;;;;;84.20;37.67;;;;;;;0.20;100.00;97425.31;5005467;28;20267;-74
2023/01/18 00:21:19;;;;;;;88.77;37.90;;;;;;;0.21;100.00;97435.47;5006362;28;20235;-73
2023/01/18 00:23:44;;;;;;;91.53;39.10;;;;;;;0.21;100.00;97435.47;5002830;28;20695;-73
2023/01/18 00:26:11;;;;;;;80.03;36.60;;;;;;;0.23;100.00;97435.44;5005096;28;20194;-73
2023/01/18 00:28:38;;;;;;;83.67;36.53;;;;;;;0.22;100.00;97439.72;5001618;28;20203;-73
2023/01/18 00:31:15;;;;;;;84.10;38.03;;;;;;;0.23;100.00;97432.91;5001260;28;20897;-73
2023/01/18 00:33:45;;;;;;;86.13;37.77;;;;;;;0.21;100.00;97439.72;5007544;28;20205;-74
2023/01/18 00:36:12;;;;;;;88.67;38.77;;;;;;;0.23;100.00;97440.53;5006594;28;20182;-73
2023/01/18 00:38:37;;;;;;;85.00;37.23;;;;;;;0.22;100.00;97439.72;5007303;28;20263;-72
2023/01/18 00:41:02;;;;;;;89.53;38.97;;;;;;;0.25;100.00;97441.34;4999197;28;20174;-74
2023/01/18 00:43:40;;;;;;;91.07;38.37;;;;;;;0.25;100.00;97439.66;5000095;28;20265;-72
2023/01/18 00:46:12;;;;;;;92.47;40.30;;;;;;;0.25;100.00;97438.81;4996447;28;20728;-72
2023/01/18 00:48:39;;;;;;;80.30;38.87;;;;;;;0.27;100.00;97437.91;4998312;28;20182;-73
2023/01/18 00:51:08;;;;;;;88.67;38.43;;;;;;;0.24;100.00;97434.59;5001238;28;20261;-72
2023/01/18 00:53:36;;;;;;;87.63;38.17;;;;;;;0.25;100.00;97441.34;4996476;28;20283;-74
2023/01/18 00:56:02;;;;;;;83.90;38.07;;;;;;;0.23;100.00;97443.91;4997082;28;20186;-73
2023/01/18 00:58:27;;;;;;;81.87;38.13;;;;;;;0.23;100.00;97449.00;5006868;28;20184;-73
2023/01/18 01:00:53;;;;;;;82.43;38.47;;;;;;;0.23;100.00;97451.53;5028501;28;20190;-76
2023/01/18 01:03:21;;;;;;;87.07;39.47;;;;;;;0.20;100.00;97443.13;5030151;28;20183;-71
2023/01/18 01:08:31;;;;;;;84.03;38.33;;;;;;;0.23;100.00;97445.63;4994164;28;20198;-75
2023/01/18 01:11:08;;;;;;;85.33;38.50;;;;;;;0.28;100.00;97451.50;5005473;28;20279;-75
2023/01/18 01:27:16;;;;;;;83.07;37.40;;;;;;;0.21;100.00;97460.06;5006763;28;20289;-72
2023/01/18 01:29:42;;;;;;;80.93;36.63;;;;;;;0.26;100.00;97464.22;5003676;28;20187;-74
2023/01/18 01:32:07;;;;;;;94.50;41.27;;;;;;;0.26;100.00;97466.75;4996748;28;20215;-73
2023/01/18 01:34:33;;;;;;;101.47;39.33;;;;;;;0.23;100.00;97471.88;5002676;28;20215;-72
2023/01/18 01:36:58;;;;;;;99.77;42.67;;;;;;;0.23;100.00;97468.50;5007397;28;20188;-74
2023/01/18 01:39:24;;;;;;;105.93;40.97;;;;;;;0.21;100.00;97466.00;5007044;28;20187;-73
2023/01/18 01:41:49;;;;;;;102.87;42.07;;;;;;;0.20;100.00;97473.63;5013368;28;20197;-72
2023/01/18 01:44:20;;;;;;;94.93;39.50;;;;;;;0.22;100.00;97479.53;5003702;28;20265;-74
2023/01/18 01:46:55;;;;;;;95.67;40.03;;;;;;;0.25;100.00;97477.78;5007225;28;20915;-72
2023/01/18 01:49:22;;;;;;;99.63;39.17;;;;;;;0.24;100.00;97483.75;5001628;28;20629;-73
2023/01/18 01:51:53;;;;;;;89.97;39.00;;;;;;;0.24;100.00;97490.53;5007421;28;20200;-72
2023/01/18 01:54:27;;;;;;;96.20;38.87;;;;;;;0.19;100.00;97488.06;5005889;28;20216;-71
2023/01/18 01:56:58;;;;;;;90.27;34.93;;;;;;;0.18;100.00;97496.56;5007668;28;20522;-73
2023/01/18 01:59:23;;;;;;;100.03;38.13;;;;;;;0.21;100.00;97504.16;4992884;28;20666;-73
2023/01/18 02:01:48;;;;;;;95.63;39.83;;;;;;;0.24;100.00;97508.34;4995809;28;20188;-75
2023/01/18 02:04:14;;;;;;;93.07;39.23;;;;;;;0.25;100.00;97512.56;4995439;28;20630;-76
2023/01/18 02:06:39;;;;;;;89.57;37.37;;;;;;;0.28;100.00;97510.00;5008056;28;20211;-75
2023/01/18 02:09:08;;;;;;;89.80;36.60;;;;;;;0.21;100.00;97506.69;4997925;28;20192;-78
2023/01/18 02:11:34;;;;;;;89.70;38.07;;;;;;;0.20;100.00;97515.19;5011882;28;20219;-74
2023/01/18 02:14:04;;;;;;;90.17;37.17;;;;;;;0.16;100.00;97518.63;5006790;28;20210;-75
2023/01/18 02:17:06;;;;;;;84.83;37.07;;;;;;;0.16;100.00;97521.16;4994818;28;20214;-76
2023/01/18 02:19:49;;;;;;;87.83;37.20;;;;;;;0.21;100.00;97531.28;5002959;28;20247;-73
2023/01/18 02:22:42;;;;;;;84.87;34.90;;;;;;;0.20;100.00;97524.50;4999448;28;20655;-72
2023/01/18 02:25:25;;;;;;;83.17;34.90;;;;;;;0.22;100.00;97532.97;5000520;28;20312;-73
2023/01/18 02:28:13;;;;;;;78.00;33.10;;;;;;;0.22;100.00;97535.50;4997935;28;20758;-73
2023/01/18 02:30:57;;;;;;;82.93;32.60;;;;;;;0.20;100.00;97544.84;5008187;28;20235;-76
2023/01/18 02:33:45;;;;;;;78.37;32.87;;;;;;;0.22;100.00;97540.59;4995448;28;20189;-76
2023/01/18 02:36:25;;;;;;;74.97;30.73;;;;;;;0.21;100.00;97542.31;5003597;28;20734;-75
2023/01/18 02:38:54;;;;;;;83.37;34.37;;;;;;;0.22;100.00;97546.53;5007789;28;20284;-75
2023/01/18 02:47:14;;;;;;;92.47;36.13;;;;;;;0.19;100.00;97556.75;5000805;28;20205;-73
2023/01/18 02:49:40;;;;;;;95.40;36.97;;;;;;;0.21;100.00;97557.56;5003900;28;20181;-73
2023/01/18 02:52:07;;;;;;;88.73;38.90;;;;;;;0.21;100.00;97557.56;5004595;28;20641;-74
2023/01/18 02:54:37;;;;;;;86.43;35.83;;;;;;;0.22;100.00;97566.03;5002006;28;20221;-74
2023/01/18 02:57:11;;;;;;;95.93;38.27;;;;;;;0.25;100.00;97566.00;5005980;28;20280;-72
2023/01/18 02:59:44;;;;;;;84.13;37.07;;;;;;;0.31;100.00;97576.09;4998041;28;20328;-73
2023/01/18 03:02:15;;;;;;;96.20;38.07;;;;;;;0.32;100.00;97571.84;5003740;28;20279;-72
2023/01/18 03:04:55;;;;;;;82.63;36.13;;;;;;;0.30;100.00;97576.97;5007683;28;20211;-72
2023/01/18 03:07:34;;;;;;;70.67;32.43;;;;;;;0.28;100.00;97576.97;5008565;28;20234;-75
2023/01/18 03:10:03;;;;;;;68.37;30.73;;;;;;;0.23;100.00;97581.25;5033681;28;20169;-77
2023/01/18 03:12:44;;;;;;;74.60;32.47;;;;;;;0.23;100.00;97577.88;5032088;28;20204;-77
2023/01/18 03:15:39;;;;;;;74.47;32.47;;;;;;;0.21;100.00;97582.16;5002831;28;20290;-75
2023/01/18 03:18:26;;;;;;;67.47;30.20;;;;;;;0.22;100.00;97587.22;4985063;28;20231;-73
2023/01/18 03:20:54;;;;;;;73.40;31.30;;;;;;;0.25;100.00;97587.19;5006461;28;20184;-72
2023/01/18 03:23:38;;;;;;;78.43;30.90;;;;;;;0.24;100.00;97592.28;5008028;28;20207;-72
2023/01/18 03:26:18;;;;;;;70.07;31.03;;;;;;;0.26;100.00;97604.13;5002505;28;20180;-74
2023/01/18 03:34:44;;;;;;;79.07;36.80;;;;;;;0.23;100.00;97603.31;5009426;28;20750;-73
2023/01/18 03:37:15;;;;;;;72.03;35.37;;;;;;;0.21;100.00;97615.22;5008651;28;20185;-74
2023/01/18 03:39:45;;;;;;;96.63;43.00;;;;;;;0.21;100.00;97617.75;5007645;28;20180;-73
2023/01/18 03:42:20;;;;;;;97.20;45.80;;;;;;;0.24;100.00;97617.72;5005972;28;20186;-73
2023/01/18 03:44:52;;;;;;;102.10;48.43;;;;;;;0.19;100.00;97622.00;5016240;28;20233;-73
2023/01/18 03:47:18;;;;;;;108.37;51.70;;;;;;;0.15;100.00;97633.91;5008073;28;20210;-77
2023/01/18 03:49:43;;;;;;;114.10;54.10;;;;;;;0.15;100.00;97629.66;5004760;28;20651;-72
2023/01/18 03:52:30;;;;;;;112.83;52.07;;;;;;;0.11;100.00;97639.88;5005028;28;20296;-72
2023/01/18 03:55:05;;;;;;;112.23;50.50;;;;;;;0.13;100.00;97633.09;5004647;28;20257;-73
2023/01/18 03:58:08;;;;;;;122.03;52.20;;;;;;;0.13;100.00;97636.50;4999981;28;20190;-78
2023/01/18 04:00:34;;;;;;;117.53;50.97;;;;;;;0.11;100.00;97648.38;5012820;28;20191;-77
2023/01/18 04:02:59;;;;;;;119.93;51.03;;;;;;;0.14;100.00;97650.03;5007219;28;20197;-76
2023/01/18 04:05:25;;;;;;;113.17;49.70;;;;;;;0.15;100.00;97649.19;5000102;28;20220;-76
2023/01/18 04:07:50;;;;;;;125.77;51.77;;;;;;;0.12;100.00;97652.59;5001688;28;20203;-75
2023/01/18 04:10:15;;;;;;;123.53;51.43;;;;;;;0.12;100.00;97660.25;5000444;28;20192;-77
2023/01/18 04:12:41;;;;;;;119.60;48.97;;;;;;;0.14;100.00;97663.63;5003033;28;20733;-75
2023/01/18 04:15:07;;;;;;;122.63;50.90;;;;;;;0.18;100.00;97666.97;5002395;28;20558;-75
2023/01/18 04:17:32;;;;;;;127.33;51.40;;;;;;;0.22;100.00;97670.31;5000213;28;20269;-73
2023/01/18 04:19:57;;;;;;;113.03;50.33;;;;;;;0.20;100.00;97680.50;5001662;28;20215;-72
2023/01/18 04:22:23;;;;;;;115.03;49.00;;;;;;;0.21;100.00;97673.72;4994863;28;20214;-73
2023/01/18 04:24:48;;;;;;;90.80;46.60;;;;;;;0.23;100.00;97684.72;5007093;28;20290;-73
2023/01/18 04:27:13;;;;;;;94.57;46.80;;;;;;;0.23;100.00;97685.53;4996478;28;20666;-72
2023/01/18 04:29:39;;;;;;;109.17;48.77;;;;;;;0.14;100.00;97696.69;4997948;28;20189;-73
2023/01/18 04:32:04;;;;;;;108.53;47.03;;;;;;;0.12;100.00;97692.44;4994147;28;20223;-74
2023/01/18 04:34:30;;;;;;;102.63;46.47;;;;;;;0.13;100.00;97702.63;5001104;28;20221;-73
2023/01/18 04:36:55;;;;;;;100.13;46.93;;;;;;;0.10;100.00;97701.78;4997250;28;20199;-72
2023/01/18 04:39:21;;;;;;;105.20;48.87;;;;;;;0.08;100.00;97711.13;5003382;28;20513;-74
2023/01/18 04:41:46;;;;;;;102.87;47.77;;;;;;;0.06;100.00;97713.69;5001470;28;20181;-72
2023/01/18 04:44:12;;;;;;;116.83;50.37;;;;;;;0.05;100.00;97722.16;5002317;28;20209;-73
2023/01/18 04:46:37;;;;;;;104.90;48.20;;;;;;;0.07;100.00;97727.25;4996800;28;20185;-74
2023/01/18 04:49:09;;;;;;;104.67;46.87;;;;;;;0.11;100.00;97728.91;4998675;28;20202;-73
2023/01/18 04:51:36;;;;;;;110.40;46.03;;;;;;;0.14;100.00;97737.38;5000573;28;20209;-72
2023/01/18 04:54:01;;;;;;;101.47;44.67;;;;;;;0.22;100.00;97739.00;5018587;28;20756;-72
2023/01/18 04:56:26;;;;;;;95.63;42.80;;;;;;;0.30;100.00;97740.63;5003887;28;20320;-72
2023/01/18 04:58:53;;;;;;;92.90;41.30;;;;;;;0.38;100.00;97747.34;4999590;28;20305;-73
2023/01/18 05:01:19;;;;;;;90.57;40.77;;;;;;;0.43;100.00;97749.00;5002509;28;20715;-72
2023/01/18 05:03:44;;;;;;;119.33;49.53;;;;;;;0.48;100.00;97755.72;5004755;28;20221;-73
2023/01/18 05:06:11;;;;;;;119.67;50.30;;;;;;;0.45;100.00;97757.44;5006862;28;20187;-73
2023/01/18 05:08:40;;;;;;;103.33;48.83;;;;;;;0.48;100.00;97763.34;5000361;28;20188;-76
2023/01/18 05:11:08;;;;;;;113.80;50.93;;;;;;;0.44;100.00;97765.09;4994381;28;20199;-77
2023/01/18 05:13:34;;;;;;;113.43;50.57;;;;;;;0.35;100.00;97773.66;4993593;28;20203;-75
2023/01/18 05:16:00;;;;;;;109.37;48.23;;;;;;;0.32;100.00;97780.47;5000746;28;20185;-76
2023/01/18 05:18:26;;;;;;;96.90;45.37;;;;;;;0.28;100.00;97787.28;5031970;28;20199;-75
2023/01/18 05:20:52;;;;;;;103.07;46.33;;;;;;;0.23;100.00;97789.84;5034561;28;20235;-73
2023/01/18 05:23:17;;;;;;;103.10;46.73;;;;;;;0.25;100.00;97797.47;4996752;28;20189;-73
2023/01/18 05:25:43;;;;;;;109.40;45.77;;;;;;;0.22;100.00;97794.94;5005730;28;20283;-73
2023/01/18 05:28:09;;;;;;;102.70;47.33;;;;;;;0.23;100.00;97810.19;4996345;28;20684;-73
2023/01/18 05:30:40;;;;;;;99.63;45.33;;;;;;;0.21;100.00;97822.09;5000783;28;20265;-72
2023/01/18 05:33:05;;;;;;;105.23;47.43;;;;;;;0.18;100.00;97827.19;4995964;28;20222;-76
2023/01/18 05:35:31;;;;;;;102.53;46.87;;;;;;;0.22;100.00;97835.66;4995064;28;20746;-75
2023/01/18 05:37:57;;;;;;;99.70;43.97;;;;;;;0.25;100.00;97843.28;4991613;28;20199;-75
2023/01/18 05:40:22;;;;;;;100.93;44.53;;;;;;;0.27;100.00;97836.47;4996456;28;20189;-75
2023/01/18 05:42:47;;;;;;;96.37;42.03;;;;;;;0.31;100.00;97843.22;4992842;28;22153;-76
2023/01/18 05:45:13;;;;;;;89.53;41.77;;;;;;;0.37;100.00;97849.97;4998830;28;20254;-73
2023/01/18 05:47:40;;;;;;;88.53;42.63;;;;;;;0.43;100.00;97855.00;5004459;28;20258;-73
2023/01/18 05:50:06;;;;;;;97.50;42.67;;;;;;;0.45;100.00;97851.59;5005571;28;20259;-73
2023/01/18 05:52:31;;;;;;;94.03;45.17;;;;;;;0.48;100.00;97852.41;5000154;28;20208;-71
2023/01/18 05:54:57;;;;;;;93.83;43.20;;;;;;;0.50;100.00;97859.22;5004014;28;20206;-73
2023/01/18 05:57:22;;;;;;;94.63;44.57;;;;;;;0.52;100.00;97862.59;5006381;28;20204;-75
2023/01/18 05:59:47;;;;;;;98.30;42.97;;;;;;;0.52;100.00;97866.81;5004170;28;20184;-72
2023/01/18 06:02:13;;;;;;;87.13;44.60;;;;;;;0.53;100.00;97866.78;5004378;28;20187;-73
2023/01/18 06:04:38;;;;;;;99.43;46.47;;;;;;;0.54;100.00;97876.13;5003635;28;20260;-75
2023/01/18 06:07:03;;;;;;;95.33;45.10;;;;;;;0.56;100.00;97882.03;4999891;28;20192;-76
2023/01/18 06:09:29;;;;;;;94.33;43.20;;;;;;;0.55;100.00;97900.72;4995687;28;20575;-74
2023/01/18 06:11:55;;;;;;;87.03;41.23;;;;;;;0.56;100.00;97897.31;5016458;28;20207;-75
2023/01/18 06:14:20;;;;;;;87.07;43.13;;;;;;;0.58;100.00;97910.06;5003371;28;20926;-74
2023/01/18 06:16:45;;;;;;;88.83;41.10;;;;;;;0.58;100.00;97910.06;5005122;28;20292;-72
2023/01/18 06:19:11;;;;;;;81.73;39.90;;;;;;;0.58;100.00;97918.53;4996932;28;20172;-73
2023/01/18 06:21:36;;;;;;;79.37;39.53;;;;;;;0.58;100.00;97918.53;5002255;28;20534;-73
2023/01/18 06:24:02;;;;;;;79.00;38.50;;;;;;;0.59;100.00;97922.75;4999947;28;20323;-71
2023/01/18 06:26:29;;;;;;;79.53;38.43;;;;;;;0.59;100.00;97927.84;5002799;28;20263;-74
2023/01/18 06:28:54;;;;;;;79.23;39.20;;;;;;;0.60;100.00;97941.44;4997422;28;20191;-76
2023/01/18 06:31:20;;;;;;;80.03;39.33;;;;;;;0.60;100.00;97939.72;5001770;28;20188;-71
2023/01/18 06:33:45;;;;;;;78.00;38.40;;;;;;;0.61;100.00;97953.28;5003613;28;20199;-75
2023/01/18 06:36:10;;;;;;;73.10;38.10;;;;;;;0.60;100.00;97952.44;5005562;28;20263;-73
2023/01/18 06:38:36;;;;;;;72.53;34.83;;;;;;;0.60;100.00;97959.25;5005482;28;20184;-74
2023/01/18 06:41:01;;;;;;;82.70;37.40;;;;;;;0.58;100.00;97966.03;5010808;28;20176;-73
2023/01/18 06:43:26;;;;;;;82.57;36.97;;;;;;;0.57;100.00;97966.91;5000119;28;20176;-73
2023/01/18 06:45:53;;;;;;;73.27;35.57;;;;;;;0.56;100.00;97967.75;5000552;28;20176;-74
2023/01/18 06:48:19;;;;;;;79.17;36.53;;;;;;;0.55;100.00;97966.88;5005716;28;20185;-73
2023/01/18 06:50:44;;;;;;;76.50;36.37;;;;;;;0.55;100.00;97974.53;5002929;28;20188;-73
2023/01/18 06:53:09;;;;;;;83.13;37.20;;;;;;;0.56;100.00;97973.69;4991735;28;20200;-74
2023/01/18 06:55:35;;;;;;;77.77;37.37;;;;;;;0.56;100.00;97985.56;4999174;28;20200;-73
2023/01/18 06:58:01;;;;;;;92.33;44.00;;;;;;;0.55;100.00;97994.06;5005141;28;20200;-73
2023/01/18 07:00:27;;;;;;;94.23;44.37;;;;;;;0.54;100.00;97994.91;5001163;28;20208;-73
2023/01/18 07:02:53;;;;;;;96.07;44.07;;;;;;;0.51;100.00;98000.88;5002716;28;20187;-73
2023/01/18 07:05:18;;;;;;;101.60;48.20;;;;;;;0.50;100.00;98004.28;5012670;28;20208;-75
2023/01/18 07:07:45;;;;;;;118.57;66.13;;;;;;;0.50;100.00;98016.13;4997972;28;20219;-75
2023/01/18 07:10:10;;;;;;;121.87;71.73;;;;;;;0.49;100.00;98012.75;5004450;28;20185;-75
2023/01/18 07:12:36;;;;;;;116.37;66.93;;;;;;;0.51;100.00;98015.28;4998502;28;20278;-75
2023/01/18 07:15:01;;;;;;;111.40;65.53;;;;;;;0.52;100.00;98017.84;5004475;28;20221;-74
2023/01/18 07:17:26;;;;;;;100.60;60.07;;;;;;;0.53;100.00;98021.22;4999337;28;20181;-73
2023/01/18 07:19:52;;;;;;;95.50;54.90;;;;;;;0.55;100.00;98029.69;5005904;28;20239;-72
2023/01/18 07:22:17;;;;;;;94.17;52.17;;;;;;;0.56;100.00;98032.22;5003799;28;20722;-73
2023/01/18 07:24:44;;;;;;;89.60;47.57;;;;;;;0.57;100.00;98040.72;5009239;28;20275;-76
2023/01/18 07:27:09;;;;;;;82.30;46.30;;;;;;;0.58;100.00;98050.03;5037258;28;20169;-76
2023/01/18 07:29:35;;;;;;;81.27;44.03;;;;;;;0.60;100.00;98050.88;5022090;28;20275;-73
2023/01/18 07:32:01;;;;;;;73.63;40.63;;;;;;;0.63;100.00;98052.56;5000381;28;20576;-76
2023/01/18 07:34:26;;;;;;;79.60;39.83;;;;;;;0.64;100.00;98051.72;4997090;28;20213;-76
2023/01/18 07:36:52;;;;;;;79.20;39.30;;;;;;;0.65;100.00;98069.50;5006500;28;20193;-75
2023/01/18 07:39:17;;;;;;;76.50;37.27;;;;;;;0.66;100.00;98065.28;5003352;28;20725;-75
2023/01/18 07:41:42;;;;;;;70.27;36.40;;;;;;;0.66;100.00;98062.72;4996556;28;20181;-73
2023/01/18 07:44:09;;;;;;;85.60;40.23;;;;;;;0.67;100.00;98069.53;5001315;28;20253;-77
2023/01/18 07:46:34;;;;;;;98.30;48.40;;;;;;;0.68;100.00;98066.13;5003038;28;20199;-76
2023/01/18 07:49:01;;;;;;;111.17;56.70;;;;;;;0.69;100.00;98068.66;5003564;28;20195;-75
2023/01/18 07:51:26;;;;;;;112.33;59.83;;;;;;;0.72;100.00;98075.41;4998133;28;20222;-75
2023/01/18 07:53:54;;;;;;;137.67;72.53;;;;;;;0.74;100.00;98079.66;5000655;28;20205;-73
2023/01/18 07:56:20;;;;;;;121.47;65.50;;;;;;;0.78;100.00;98083.03;5009388;28;20204;-73
2023/01/18 07:58:46;;;;;;;109.03;56.60;;;;;;;0.80;100.00;98078.78;4996012;28;20952;-75
2023/01/18 08:01:13;;;;;;;96.70;51.23;;;;;;;0.83;100.00;98088.09;4996566;28;20189;-74
2023/01/18 08:03:41;;;;;;;96.20;45.70;;;;;;;0.84;100.00;98098.25;4996221;28;20657;-73
2023/01/18 08:06:07;;;;;;;89.43;43.83;;;;;;;0.86;100.00;98103.38;4996839;28;20188;-73
2023/01/18 08:08:33;;;;;;;84.30;40.60;;;;;;;0.90;100.00;98105.06;5007632;28;20537;-73
2023/01/18 08:11:01;;;;;;;85.33;41.87;;;;;;;0.96;100.00;98111.81;5004006;28;20668;-73
2023/01/18 08:13:27;;;;;;;86.37;41.63;;;;;;;0.98;100.00;98110.09;5000467;28;20316;-74
2023/01/18 08:15:53;;;;;;;88.97;42.97;;;;;;;1.01;100.00;98117.72;5004517;28;20660;-73
2023/01/18 08:18:18;;;;;;;84.17;42.67;;;;;;;1.04;100.00;98126.19;5002525;28;20203;-74
2023/01/18 08:20:45;;;;;;;83.80;42.80;;;;;;;1.08;100.00;98127.03;5006601;28;20188;-73
2023/01/18 08:23:10;;;;;;;81.60;41.03;;;;;;;1.12;100.00;98130.38;5007113;28;20195;-73
2023/01/18 08:25:36;;;;;;;77.43;41.33;;;;;;;1.16;100.00;98132.91;4998625;28;20204;-77
2023/01/18 08:30:40;;;;;;;70.50;37.07;;;;;;;1.31;100.00;98141.31;5695898;23;20234;-76
2023/01/18 08:33:06;;;;;;;75.90;38.43;;;;;;;1.36;100.00;98147.25;5001828;28;20224;-76
2023/01/18 08:35:43;;;;;;;71.67;39.03;;;;;;;1.46;100.00;98153.13;4998320;28;20185;-77
2023/01/18 08:38:09;;;;;;;86.70;46.23;;;;;;;1.54;100.00;98168.38;5008262;28;20271;-73
2023/01/18 08:40:35;;;;;;;88.13;45.37;;;;;;;1.60;100.00;98170.88;5019998;28;20286;-77
2023/01/18 08:43:02;;;;;;;91.83;45.87;;;;;;;1.69;100.00;98168.25;5024938;28;20265;-76
2023/01/18 08:45:27;;;;;;;93.20;46.53;;;;;;;1.77;100.00;98169.03;5025743;28;20195;-76
2023/01/18 08:48:19;;;;;;;101.17;48.73;;;;;;;1.88;100.00;98170.69;5033073;28;20199;-75
2023/01/18 08:50:45;;;;;;;98.43;47.90;;;;;;;1.93;100.00;98182.53;5033670;28;20222;-75
2023/01/18 08:53:10;;;;;;;104.87;49.47;;;;;;;2.02;100.00;98188.41;5039304;28;20271;-73
2023/01/18 08:55:37;;;;;;;98.67;48.60;;;;;;;2.08;100.00;98196.84;5032931;28;20280;-73
2023/01/18 08:58:03;;;;;;;105.40;52.30;;;;;;;2.12;100.00;98187.47;5026632;28;20677;-72
2023/01/18 09:00:28;;;;;;;100.17;50.10;;;;;;;2.13;100.00;98197.69;5030209;28;20286;-72
2023/01/18 09:02:54;;;;;;;98.57;48.70;;;;;;;2.16;100.00;98204.44;5035154;28;20180;-73
2023/01/18 09:05:20;;;;;;;90.30;45.67;;;;;;;2.18;100.00;98210.38;5031043;28;20307;-74
2023/01/18 09:07:46;;;;;;;87.50;45.97;;;;;;;2.21;100.00;98206.97;5028520;28;20254;-72
2023/01/18 09:10:12;;;;;;;83.80;44.83;;;;;;;2.24;100.00;98215.47;5027098;28;20216;-73
2023/01/18 09:12:38;;;;;;;110.43;54.67;;;;;;;2.29;100.00;98217.97;5040277;28;20347;-75
2023/01/18 09:15:04;;;;;;;100.27;51.30;;;;;;;2.30;100.00;98232.41;5024871;28;20912;-76
2023/01/18 09:17:29;;;;;;;112.43;56.60;;;;;;;2.32;100.00;98228.16;5026867;28;20184;-75
2023/01/18 09:19:54;;;;;;;114.53;58.80;;;;;;;2.35;100.00;98232.38;5024565;28;20623;-76
2023/01/18 09:22:21;;;;;;;119.30;58.60;;;;;;;2.38;100.00;98238.28;5026323;28;20189;-72
2023/01/18 09:24:46;;;;;;;118.97;60.13;;;;;;;2.40;100.00;98244.22;5018617;28;20243;-74
2023/01/18 09:27:12;;;;;;;107.83;58.17;;;;;;;2.40;100.00;98241.69;5025124;28;20216;-73
2023/01/18 09:29:38;;;;;;;104.93;55.03;;;;;;;2.47;100.00;98259.50;5024531;28;20191;-71
2023/01/18 09:32:04;;;;;;;95.53;51.70;;;;;;;2.56;100.00;98254.31;5020874;28;20599;-74
2023/01/18 09:34:29;;;;;;;95.23;52.77;;;;;;;2.64;100.00;98264.44;5025532;28;20192;-73
2023/01/18 09:36:54;;;;;;;105.43;57.90;;;;;;;2.68;100.00;98266.94;5025199;28;20265;-73
2023/01/18 09:39:21;;;;;;;97.17;53.93;;;;;;;2.69;100.00;98278.88;5022341;28;20187;-72
2023/01/18 09:41:53;;;;;;;114.00;58.87;;;;;;;2.68;100.00;98277.16;5031125;28;20261;-72
2023/01/18 09:44:34;;;;;;;104.30;58.90;;;;;;;2.67;100.00;98278.03;5020798;28;20196;-72
2023/01/18 09:47:09;;;;;;;104.60;57.80;;;;;;;2.70;100.00;98277.19;5025275;28;20219;-75
2023/01/18 09:49:39;;;;;;;99.27;53.47;;;;;;;2.74;100.00;98283.94;5026656;28;20206;-73
2023/01/18 09:52:22;;;;;;;104.30;54.80;;;;;;;2.78;100.00;98285.59;5017228;28;20777;-75
2023/01/18 09:55:21;;;;;;;109.37;58.03;;;;;;;2.79;100.00;98289.84;5051146;28;20172;-78
2023/01/18 09:58:05;;;;;;;107.10;58.20;;;;;;;2.74;100.00;98289.91;5045703;28;20195;-77
2023/01/18 10:00:35;;;;;;;111.20;59.73;;;;;;;2.71;100.00;98296.75;5015905;28;20624;-76
2023/01/18 10:03:17;;;;;;;109.70;59.80;;;;;;;2.70;100.00;98301.00;5020646;28;20659;-76
2023/01/18 10:06:07;;;;;;;112.13;61.00;;;;;;;2.68;100.00;98307.81;5012773;28;20188;-77
2023/01/18 10:08:35;;;;;;;120.60;64.93;;;;;;;2.68;100.00;98309.53;5025192;28;20270;-75
2023/01/18 10:11:18;;;;;;;119.30;65.17;;;;;;;2.67;100.00;98312.94;5022025;28;20294;-76
2023/01/18 10:14:02;;;;;;;114.20;63.13;;;;;;;2.76;100.00;98320.53;5017939;28;20183;-73
2023/01/18 10:16:29;;;;;;;107.27;61.80;;;;;;;2.93;100.00;98328.06;5021269;28;20196;-73
2023/01/18 10:18:57;;;;;;;107.77;59.63;;;;;;;3.10;100.00;98319.38;5019259;28;20295;-72
2023/01/18 10:21:35;;;;;;;104.87;58.07;;;;;;;3.28;100.00;98323.44;5020393;28;20286;-73
2023/01/18 10:24:18;;;;;;;102.60;57.37;;;;;;;3.42;100.00;98329.22;5029764;28;20202;-73
2023/01/18 10:26:47;;;;;;;100.77;58.57;;;;;;;3.48;100.00;98325.75;5030446;28;20187;-73
2023/01/18 10:29:38;;;;;;;101.43;57.23;;;;;;;3.57;100.00;98335.03;5026018;28;20196;-74
2023/01/18 10:32:09;;;;;;;89.50;50.87;;;;;;;3.62;100.00;98328.16;5018047;28;20216;-73
2023/01/18 10:34:40;;;;;;;83.10;51.63;;;;;;;3.66;100.00;98335.75;5026153;28;20472;-75
2023/01/18 10:37:16;;;;;;;77.27;50.60;;;;;;;3.72;100.00;98332.28;5027868;28;20574;-76
2023/01/18 10:39:59;;;;;;;77.00;50.93;;;;;;;3.74;100.00;98339.94;5016805;28;20253;-75
2023/01/18 10:42:34;;;;;;;74.47;46.57;;;;;;;3.74;100.00;98334.81;5013765;28;20191;-75
2023/01/18 10:45:00;;;;;;;72.27;46.70;;;;;;;3.77;100.00;98337.34;5016863;28;20274;-75
2023/01/18 10:47:25;;;;;;;70.63;47.90;;;;;;;3.79;100.00;98340.72;5025688;28;20325;-73
2023/01/18 10:49:57;;;;;;;71.30;47.97;;;;;;;3.72;100.00;98334.84;5023414;28;20187;-73
2023/01/18 10:52:28;;;;;;;70.07;47.17;;;;;;;3.67;100.00;98336.59;5021172;28;20209;-73
2023/01/18 10:54:57;;;;;;;69.63;47.80;;;;;;;3.63;100.00;98338.34;5019937;28;20201;-74
2023/01/18 10:57:27;;;;;;;66.27;45.43;;;;;;;3.61;100.00;98345.19;5023434;28;20278;-73
2023/01/18 10:59:54;;;;;;;72.70;48.33;;;;;;;3.62;100.00;98346.91;5021134;28;20853;-73
2023/01/18 11:02:32;;;;;;;73.97;46.60;;;;;;;3.59;100.00;98343.53;5032254;28;20250;-72
2023/01/18 11:05:03;;;;;;;72.40;49.53;;;;;;;3.54;100.00;98345.28;5033834;28;20558;-73
2023/01/18 11:07:29;;;;;;;69.57;48.13;;;;;;;3.54;100.00;98355.53;5025481;28;20671;-76
2023/01/18 11:09:58;;;;;;;68.23;44.50;;;;;;;3.59;100.00;98353.75;5026165;28;20188;-75
2023/01/18 11:12:32;;;;;;;61.37;42.37;;;;;;;3.70;100.00;98366.44;5023412;28;20278;-75
2023/01/18 11:15:18;;;;;;;61.47;41.47;;;;;;;3.79;100.00;98362.03;5020363;28;20188;-74
2023/01/18 11:17:53;;;;;;;61.37;42.47;;;;;;;3.87;100.00;98361.94;5024517;28;20326;-72
2023/01/18 11:20:24;;;;;;;61.23;43.17;;;;;;;3.88;100.00;98373.84;5024511;28;20207;-73
2023/01/18 11:22:58;;;;;;;62.07;43.50;;;;;;;3.93;100.00;98368.72;5026276;28;20194;-73
2023/01/18 11:25:35;;;;;;;60.13;43.07;;;;;;;4.00;100.00;98370.31;5020953;28;20558;-75
2023/01/18 11:28:02;;;;;;;54.23;40.40;;;;;;;4.13;100.00;98381.22;5026384;28;20196;-74
2023/01/18 11:30:28;;;;;;;51.67;36.90;;;;;;;4.30;100.00;98381.00;5026904;28;20211;-74
2023/01/18 11:32:53;;;;;;;46.33;32.70;;;;;;;4.45;100.00;98385.06;5031450;28;20212;-75
2023/01/18 11:35:37;;;;;;;38.57;29.27;;;;;;;4.56;100.00;98380.63;5028966;28;20193;-74
2023/01/18 11:38:07;;;;;;;32.80;25.97;;;;;;;4.67;100.00;98387.28;5022378;28;20212;-73
2023/01/18 11:40:34;;;;;;;31.90;25.17;;;;;;;4.71;100.00;98379.50;5029445;28;20620;-74
2023/01/18 11:43:08;;;;;;;30.63;23.33;;;;;;;4.71;100.00;98386.38;5025913;28;20194;-74
2023/01/18 11:45:42;;;;;;;26.40;21.07;;;;;;;4.74;100.00;98391.44;5031174;28;20243;-74
2023/01/18 11:48:16;;;;;;;23.47;18.73;;;;;;;4.71;100.00;98391.50;5023576;28;20189;-74
2023/01/18 11:51:07;;;;;;;20.47;18.23;;;;;;;4.73;100.00;98397.44;5031892;28;20287;-73
2023/01/18 11:53:56;;;;;;;20.47;16.90;;;;;;;4.71;100.00;98400.00;5015971;28;20225;-74
2023/01/18 11:56:44;;;;;;;18.80;16.20;;;;;;;4.67;100.00;98395.81;5016917;28;20190;-76